createdAt,value
2023-01-21T00:00:27.003Z,-2.21
2023-01-21T00:01:27.260Z,-2.15
2023-01-21T00:02:27.162Z,-2.06
2023-01-21T00:03:27.737Z,-2.09
2023-01-21T00:04:26.901Z,-2.21
2023-01-21T00:05:26.911Z,-2.15
2023-01-21T00:06:26.611Z,-2.18
2023-01-21T00:07:26.864Z,-2.17
2023-01-21T00:08:26.826Z,-2.28
2023-01-21T00:09:27.086Z,-2.21
2023-01-21T00:10:27.044Z,-2.24
2023-01-21T00:11:26.537Z,-2.21
2023-01-21T00:12:27.004Z,-2.25
2023-01-21T00:13:26.968Z,-2.34
2023-01-21T00:14:26.959Z,-2.32
2023-01-21T00:15:26.992Z,-2.28
2023-01-21T00:16:26.913Z,-2.4
2023-01-21T00:17:26.931Z,-2.4
2023-01-21T00:18:28.248Z,-2.4
2023-01-21T00:19:26.952Z,-2.4
2023-01-21T00:20:26.364Z,-2.3
2023-01-21T00:21:26.871Z,-2.37
2023-01-21T00:22:26.535Z,-2.37
2023-01-21T00:23:26.791Z,-2.37
2023-01-21T00:24:26.758Z,-2.37
2023-01-21T00:25:26.227Z,-2.4
2023-01-21T00:26:26.703Z,-2.44
2023-01-21T00:27:26.182Z,-2.39
2023-01-21T00:28:26.400Z,-2.54
2023-01-21T00:29:26.382Z,-2.43
2023-01-21T00:30:26.663Z,-2.53
2023-01-21T00:31:27.058Z,-2.49
2023-01-21T00:32:26.323Z,-2.5
2023-01-21T00:33:26.060Z,-2.39
2023-01-21T00:34:26.288Z,-2.32
2023-01-21T00:35:26.564Z,-2.47
2023-01-21T00:36:26.437Z,-2.34
2023-01-21T00:37:26.493Z,-2.42
2023-01-21T00:38:26.191Z,-2.5
2023-01-21T00:39:26.432Z,-2.4
2023-01-21T00:40:25.899Z,-2.37
2023-01-21T00:41:26.127Z,-2.37
2023-01-21T00:42:26.366Z,-2.39
2023-01-21T00:43:26.077Z,-2.36
2023-01-21T00:44:26.317Z,-2.43
2023-01-21T00:45:26.051Z,-2.4
2023-01-21T00:46:25.882Z,-2.47
2023-01-21T00:47:26.282Z,-2.3
2023-01-21T00:48:26.232Z,-2.24
2023-01-21T00:49:25.945Z,-2.27
2023-01-21T00:50:26.192Z,-2.39
2023-01-21T00:51:26.213Z,-2.36
2023-01-21T00:52:25.915Z,-2.25
2023-01-21T00:53:26.143Z,-2.3
2023-01-21T00:54:26.107Z,-2.34
2023-01-21T00:55:26.301Z,-2.2
2023-01-21T00:56:26.215Z,-2.24
2023-01-21T00:57:26.387Z,-2.23
2023-01-21T00:58:26.073Z,-2.21
2023-01-21T00:59:25.491Z,-2.27
2023-01-21T01:00:25.981Z,-2.24
2023-01-21T01:01:26.167Z,-2.24
2023-01-21T01:02:26.091Z,-2.34
2023-01-21T01:03:25.935Z,-2.24
2023-01-21T01:04:25.898Z,-2.24
2023-01-21T01:05:25.607Z,-2.24
2023-01-21T01:06:25.867Z,-2.21
2023-01-21T01:07:25.874Z,-2.25
2023-01-21T01:08:25.300Z,-2.21
2023-01-21T01:09:25.808Z,-2.25
2023-01-21T01:10:25.757Z,-2.24
2023-01-21T01:11:25.491Z,-2.21
2023-01-21T01:12:25.714Z,-2.23
2023-01-21T01:13:25.695Z,-2.25
2023-01-21T01:14:25.744Z,-2.18
2023-01-21T01:15:25.691Z,-2.2
2023-01-21T01:16:25.128Z,-2.15
2023-01-21T01:17:25.614Z,-2.15
2023-01-21T01:18:25.600Z,-2.12
2023-01-21T01:19:25.311Z,-2.17
2023-01-21T01:20:25.303Z,-2.28
2023-01-21T01:21:25.524Z,-2.23
2023-01-21T01:22:25.497Z,-2.18
2023-01-21T01:23:25.542Z,-2.15
2023-01-21T01:24:25.210Z,-2.15
2023-01-21T01:25:25.479Z,-2.21
2023-01-21T01:26:25.182Z,-2.18
2023-01-21T01:27:24.884Z,-2.17
2023-01-21T01:28:25.381Z,-2.18
2023-01-21T01:29:25.371Z,-2.15
2023-01-21T01:30:25.095Z,-2.1
2023-01-21T01:31:25.061Z,-2.07
2023-01-21T01:32:25.029Z,-2.21
2023-01-21T01:34:25.277Z,-2.15
2023-01-21T01:35:25.760Z,-2.18
2023-01-21T01:36:25.507Z,-2.15
2023-01-21T01:37:25.691Z,-2.15
2023-01-21T01:38:25.771Z,-2.2
2023-01-21T01:39:25.481Z,-2.15
2023-01-21T01:40:25.653Z,-2.18
2023-01-21T01:41:25.689Z,-2.15
2023-01-21T01:42:25.368Z,-2.21
2023-01-21T01:43:25.358Z,-2.14
2023-01-21T01:44:25.569Z,-2.17
2023-01-21T01:45:25.038Z,-2.21
2023-01-21T01:46:25.754Z,-2.24
2023-01-21T01:47:25.515Z,-2.21
2023-01-21T01:48:25.479Z,-2.21
2023-01-21T01:49:25.208Z,-2.2
2023-01-21T01:50:25.198Z,-2.24
2023-01-21T01:51:25.432Z,-2.24
2023-01-21T01:52:25.408Z,-2.24
2023-01-21T01:53:25.137Z,-2.24
2023-01-21T01:54:25.366Z,-2.27
2023-01-21T01:55:25.155Z,-2.25
2023-01-21T01:56:25.326Z,-2.24
2023-01-21T01:57:25.317Z,-2.34
2023-01-21T01:58:24.777Z,-2.28
2023-01-21T01:59:25.557Z,-2.32
2023-01-21T02:00:25.383Z,-2.24
2023-01-21T02:01:25.494Z,-2.34
2023-01-21T02:02:24.842Z,-2.3
2023-01-21T02:03:25.075Z,-2.34
2023-01-21T02:04:24.794Z,-2.3
2023-01-21T02:05:25.272Z,-2.27
2023-01-21T02:06:25.167Z,-2.34
2023-01-21T02:07:25.229Z,-2.32
2023-01-21T02:08:25.216Z,-2.23
2023-01-21T02:09:24.934Z,-2.32
2023-01-21T02:10:25.180Z,-2.36
2023-01-21T02:11:25.232Z,-2.34
2023-01-21T02:12:24.916Z,-2.37
2023-01-21T02:13:25.130Z,-2.32
2023-01-21T02:14:24.828Z,-2.27
2023-01-21T02:15:25.063Z,-2.25
2023-01-21T02:16:25.188Z,-2.36
2023-01-21T02:17:24.798Z,-2.36
2023-01-21T02:18:24.746Z,-2.42
2023-01-21T02:19:24.728Z,-2.42
2023-01-21T02:20:24.706Z,-2.24
2023-01-21T02:21:24.503Z,-2.37
2023-01-21T02:22:24.663Z,-2.27
2023-01-21T02:23:24.902Z,-2.43
2023-01-21T02:24:24.616Z,-2.3
2023-01-21T02:25:24.598Z,-2.36
2023-01-21T02:26:24.578Z,-2.43
2023-01-21T02:27:34.804Z,-2.3
2023-01-21T02:28:24.534Z,-2.32
2023-01-21T02:29:24.813Z,-2.39
2023-01-21T02:30:24.844Z,-2.32
2023-01-21T02:31:24.830Z,-2.43
2023-01-21T02:32:24.442Z,-2.34
2023-01-21T02:33:24.170Z,-2.39
2023-01-21T02:34:24.649Z,-2.37
2023-01-21T02:35:24.384Z,-2.32
2023-01-21T02:36:24.733Z,-2.39
2023-01-21T02:37:24.581Z,-2.39
2023-01-21T02:38:24.561Z,-2.39
2023-01-21T02:39:24.302Z,-2.4
2023-01-21T02:40:24.265Z,-2.46
2023-01-21T02:41:24.251Z,-2.37
2023-01-21T02:42:24.236Z,-2.34
2023-01-21T02:43:24.518Z,-2.34
2023-01-21T02:44:24.461Z,-2.32
2023-01-21T02:45:24.449Z,-2.39
2023-01-21T02:46:24.590Z,-2.34
2023-01-21T02:47:24.133Z,-2.44
2023-01-21T02:48:24.373Z,-2.39
2023-01-21T02:49:24.352Z,-2.36
2023-01-21T02:50:24.347Z,-2.37
2023-01-21T02:51:24.441Z,-2.36
2023-01-21T02:52:24.031Z,-2.34
2023-01-21T02:53:23.749Z,-2.34
2023-01-21T02:54:24.213Z,-2.37
2023-01-21T02:55:23.955Z,-2.49
2023-01-21T02:56:23.913Z,-2.39
2023-01-21T02:57:24.159Z,-2.42
2023-01-21T02:58:23.896Z,-2.49
2023-01-21T02:59:23.902Z,-2.44
2023-01-21T03:00:24.413Z,-2.49
2023-01-21T03:01:23.844Z,-2.46
2023-01-21T03:02:24.097Z,-2.46
2023-01-21T03:03:24.031Z,-2.5
2023-01-21T03:04:23.742Z,-2.6
2023-01-21T03:05:23.997Z,-2.5
2023-01-21T03:06:23.951Z,-2.55
2023-01-21T03:07:23.962Z,-2.49
2023-01-21T03:08:23.733Z,-2.62
2023-01-21T03:09:23.641Z,-2.67
2023-01-21T03:10:23.608Z,-2.58
2023-01-21T03:11:23.600Z,-2.65
2023-01-21T03:12:23.831Z,-2.55
2023-01-21T03:13:23.801Z,-2.58
2023-01-21T03:14:23.825Z,-2.64
2023-01-21T03:15:23.838Z,-2.62
2023-01-21T03:16:23.879Z,-2.6
2023-01-21T03:17:23.766Z,-2.55
2023-01-21T03:18:23.447Z,-2.62
2023-01-21T03:19:23.681Z,-2.57
2023-01-21T03:20:23.861Z,-2.6
2023-01-21T03:21:23.633Z,-2.6
2023-01-21T03:22:23.648Z,-2.61
2023-01-21T03:23:23.350Z,-2.62
2023-01-21T03:24:23.318Z,-2.73
2023-01-21T03:25:23.303Z,-2.75
2023-01-21T03:26:23.283Z,-2.65
2023-01-21T03:27:23.553Z,-2.75
2023-01-21T03:28:23.502Z,-2.75
2023-01-21T03:29:23.230Z,-2.68
2023-01-21T03:30:23.615Z,-2.72
2023-01-21T03:31:23.289Z,-2.72
2023-01-21T03:32:22.885Z,-2.78
2023-01-21T03:49:52.969Z,-2.9
2023-01-21T03:50:52.724Z,-2.91
2023-01-21T03:51:52.846Z,-2.96
2023-01-21T03:52:52.814Z,-2.99
2023-01-21T03:53:52.784Z,-3.01
2023-01-21T03:54:52.761Z,-2.96
2023-01-21T03:55:52.734Z,-2.94
2023-01-21T03:56:52.482Z,-3.06
2023-01-21T03:57:52.682Z,-3.04
2023-01-21T03:58:52.429Z,-3.09
2023-01-21T03:59:52.679Z,-3.07
2023-01-21T04:00:52.466Z,-3.07
2023-01-21T04:01:52.717Z,-3.06
2023-01-21T04:02:52.323Z,-2.96
2023-01-21T04:03:52.066Z,-3.04
2023-01-21T04:04:52.297Z,-3.09
2023-01-21T04:05:52.591Z,-2.94
2023-01-21T04:06:52.248Z,-3.01
2023-01-21T04:07:52.464Z,-2.96
2023-01-21T04:08:52.221Z,-3.06
2023-01-21T04:09:52.178Z,-3.06
2023-01-21T04:10:52.402Z,-3.09
2023-01-21T04:11:52.116Z,-3.07
2023-01-21T04:12:52.103Z,-3
2023-01-21T04:13:52.349Z,-2.96
2023-01-21T04:14:52.324Z,-3.03
2023-01-21T04:15:52.314Z,-2.94
2023-01-21T04:16:52.270Z,-2.96
2023-01-21T04:17:51.996Z,-3.03
2023-01-21T04:18:52.253Z,-3.01
2023-01-21T04:19:52.039Z,-3.03
2023-01-21T04:20:51.939Z,-2.94
2023-01-21T04:21:52.238Z,-2.94
2023-01-21T04:22:51.896Z,-2.94
2023-01-21T04:23:52.120Z,-2.96
2023-01-21T04:24:52.118Z,-3
2023-01-21T04:25:51.566Z,-2.96
2023-01-21T04:26:51.789Z,-2.97
2023-01-21T04:27:51.771Z,-2.9
2023-01-21T04:28:52.025Z,-2.96
2023-01-21T04:29:51.986Z,-2.97
2023-01-21T04:30:52.177Z,-3.03
2023-01-21T04:31:51.935Z,-2.96
2023-01-21T04:32:51.915Z,-2.97
2023-01-21T04:33:51.668Z,-2.97
2023-01-21T04:34:51.885Z,-2.94
2023-01-21T04:35:51.593Z,-2.88
2023-01-21T04:36:51.588Z,-3
2023-01-21T04:37:51.897Z,-2.93
2023-01-21T04:38:51.288Z,-2.85
2023-01-21T04:39:51.829Z,-2.85
2023-01-21T04:40:51.501Z,-2.86
2023-01-21T04:41:51.476Z,-2.82
2023-01-21T04:42:51.698Z,-2.85
2023-01-21T04:43:51.167Z,-2.88
2023-01-21T04:44:51.651Z,-2.85
2023-01-21T04:45:51.565Z,-2.93
2023-01-21T04:46:51.607Z,-2.83
2023-01-21T04:47:51.353Z,-2.88
2023-01-21T04:48:51.571Z,-2.93
2023-01-21T04:49:51.555Z,-2.91
2023-01-21T04:50:51.555Z,-2.9
2023-01-21T04:51:51.524Z,-2.88
2023-01-21T04:52:51.479Z,-2.93
2023-01-21T04:53:51.546Z,-2.88
2023-01-21T04:54:51.187Z,-2.94
2023-01-21T04:55:51.413Z,-2.9
2023-01-21T04:56:51.176Z,-2.86
2023-01-21T04:57:50.889Z,-2.91
2023-01-21T04:58:51.108Z,-2.86
2023-01-21T04:59:51.077Z,-2.86
2023-01-21T05:00:51.202Z,-2.82
2023-01-21T05:01:51.155Z,-2.93
2023-01-21T05:02:51.380Z,-2.9
2023-01-21T05:03:51.335Z,-2.9
2023-01-21T05:04:51.063Z,-2.86
2023-01-21T05:05:51.298Z,-2.88
2023-01-21T05:06:51.015Z,-2.86
2023-01-21T05:07:50.745Z,-2.93
2023-01-21T05:08:50.899Z,-2.83
2023-01-21T05:09:51.277Z,-2.86
2023-01-21T05:10:51.201Z,-2.86
2023-01-21T05:11:51.166Z,-2.83
2023-01-21T05:12:51.231Z,-2.9
2023-01-21T05:13:50.858Z,-2.85
2023-01-21T05:14:51.119Z,-2.93
2023-01-21T05:15:51.004Z,-2.9
2023-01-21T05:16:51.193Z,-2.88
2023-01-21T05:17:51.037Z,-2.9
2023-01-21T05:18:51.699Z,-2.9
2023-01-21T05:19:50.737Z,-2.96
2023-01-21T05:20:50.999Z,-3
2023-01-21T05:21:50.689Z,-2.97
2023-01-21T05:22:50.669Z,-2.97
2023-01-21T05:23:50.654Z,-2.94
2023-01-21T05:24:50.630Z,-2.91
2023-01-21T05:25:50.943Z,-2.94
2023-01-21T05:26:50.835Z,-2.93
2023-01-21T05:27:50.828Z,-3
2023-01-21T05:28:50.530Z,-2.9
2023-01-21T05:29:50.781Z,-2.94
2023-01-21T05:30:50.609Z,-2.99
2023-01-21T05:31:50.750Z,-2.97
2023-01-21T05:32:50.443Z,-2.97
2023-01-21T05:33:50.444Z,-3.01
2023-01-21T05:34:50.668Z,-3.07
2023-01-21T05:35:50.376Z,-3
2023-01-21T05:36:50.681Z,-3.04
2023-01-21T05:37:50.363Z,-3.03
2023-01-21T05:38:50.075Z,-3.09
2023-01-21T05:39:50.294Z,-3
2023-01-21T05:40:50.271Z,-3.01
2023-01-21T05:41:50.573Z,-2.99
2023-01-21T05:42:50.240Z,-3.04
2023-01-21T05:43:50.199Z,-3.06
2023-01-21T05:44:50.474Z,-3.01
2023-01-21T05:45:50.494Z,-3.04
2023-01-21T05:46:50.409Z,-2.97
2023-01-21T05:47:50.376Z,-3.01
2023-01-21T05:48:50.131Z,-3.01
2023-01-21T05:49:50.388Z,-3.03
2023-01-21T05:50:50.453Z,-3.01
2023-01-21T05:51:50.107Z,-3.06
2023-01-21T05:52:50.277Z,-3.04
2023-01-21T05:53:49.993Z,-3.04
2023-01-21T05:55:05.441Z,-3.03
2023-01-21T05:55:49.685Z,-3.06
2023-01-21T05:56:50.182Z,-3.07
2023-01-21T05:57:50.237Z,-3.06
2023-01-21T05:58:50.149Z,-3.09
2023-01-21T05:59:49.883Z,-3.03
2023-01-21T06:00:49.864Z,-2.96
2023-01-21T06:01:50.068Z,-3.04
2023-01-21T06:02:50.112Z,-2.99
2023-01-21T06:03:49.906Z,-3.12
2023-01-21T06:04:49.762Z,-3.11
2023-01-21T06:05:50.010Z,-3.12
2023-01-21T06:06:49.952Z,-3.21
2023-01-21T06:07:49.946Z,-3.12
2023-01-21T06:08:49.912Z,-3.18
2023-01-21T06:09:49.896Z,-3.3
2023-01-21T06:10:49.874Z,-3.3
2023-01-21T06:11:49.591Z,-3.25
2023-01-21T06:12:49.851Z,-3.3
2023-01-21T06:13:49.881Z,-3.36
2023-01-21T06:14:49.266Z,-3.43
2023-01-21T06:15:49.722Z,-3.39
2023-01-21T06:16:49.485Z,-3.39
2023-01-21T06:17:52.306Z,-3.42
2023-01-21T06:18:49.690Z,-3.43
2023-01-21T06:19:49.407Z,-3.42
2023-01-21T06:20:49.395Z,-3.32
2023-01-21T06:21:49.141Z,-3.45
2023-01-21T06:22:49.599Z,-3.42
2023-01-21T06:23:49.340Z,-3.38
2023-01-21T06:24:49.549Z,-3.42
2023-01-21T06:25:49.569Z,-3.38
2023-01-21T06:26:49.258Z,-3.39
2023-01-21T06:27:49.496Z,-3.45
2023-01-21T06:28:48.967Z,-3.45
2023-01-21T06:29:49.538Z,-3.42
2023-01-21T06:30:49.847Z,-3.42
2023-01-21T06:31:49.694Z,-3.38
2023-01-21T06:32:49.379Z,-3.3
2023-01-21T06:33:49.356Z,-3.3
2023-01-21T06:34:51.497Z,-3.35
2023-01-21T06:35:48.807Z,-3.39
2023-01-21T06:36:49.300Z,-3.36
2023-01-21T06:37:49.279Z,-3.4
2023-01-21T06:38:48.999Z,-3.3
2023-01-21T06:39:49.222Z,-3.33
2023-01-21T06:40:48.943Z,-3.36
2023-01-21T06:41:49.191Z,-3.35
2023-01-21T06:42:49.154Z,-3.39
2023-01-21T06:43:49.133Z,-3.36
2023-01-21T06:44:49.137Z,-3.32
2023-01-21T06:45:49.184Z,-3.36
2023-01-21T06:47:04.520Z,-3.33
2023-01-21T06:47:48.743Z,-3.28
2023-01-21T06:48:48.550Z,-3.32
2023-01-21T06:49:49.022Z,-3.3
2023-01-21T06:50:49.070Z,-3.39
2023-01-21T06:51:48.975Z,-3.24
2023-01-21T06:52:48.456Z,-3.3
2023-01-21T06:53:48.672Z,-3.3
2023-01-21T06:54:48.906Z,-3.32
2023-01-21T06:55:48.919Z,-3.32
2023-01-21T06:56:48.659Z,-3.32
2023-01-21T06:57:48.840Z,-3.24
2023-01-21T06:58:48.571Z,-3.3
2023-01-21T06:59:48.562Z,-3.3
2023-01-21T07:00:48.531Z,-3.29
2023-01-21T07:01:49.021Z,-3.36
2023-01-21T07:02:48.632Z,-3.3
2023-01-21T07:03:48.704Z,-3.29
2023-01-21T07:04:48.868Z,-3.32
2023-01-21T07:05:49.012Z,-3.32
2023-01-21T07:06:48.745Z,-3.28
2023-01-21T07:07:48.484Z,-3.25
2023-01-21T07:08:48.943Z,-3.32
2023-01-21T07:09:48.671Z,-3.24
2023-01-21T07:10:52.128Z,-3.33
2023-01-21T07:11:48.876Z,-3.32
2023-01-21T07:12:48.855Z,-3.28
2023-01-21T07:13:48.326Z,-3.3
2023-01-21T07:14:48.554Z,-3.28
2023-01-21T07:15:48.891Z,-3.28
2023-01-21T07:16:48.520Z,-3.32
2023-01-21T07:17:48.815Z,-3.25
2023-01-21T07:18:48.725Z,-3.24
2023-01-21T07:19:48.475Z,-3.25
2023-01-21T07:20:48.712Z,-3.29
2023-01-21T07:21:48.668Z,-3.28
2023-01-21T07:22:48.639Z,-3.29
2023-01-21T07:23:48.617Z,-3.17
2023-01-21T07:24:48.596Z,-3.15
2023-01-21T07:25:48.327Z,-3.09
2023-01-21T07:26:48.295Z,-3.14
2023-01-21T07:27:48.529Z,-3.11
2023-01-21T07:28:48.514Z,-3.18
2023-01-21T07:29:48.482Z,-3.18
2023-01-21T07:30:48.670Z,-3.18
2023-01-21T07:31:48.475Z,-3.28
2023-01-21T07:32:48.412Z,-3.24
2023-01-21T07:33:48.472Z,-3.21
2023-01-21T07:34:48.379Z,-3.19
2023-01-21T07:35:48.389Z,-3.21
2023-01-21T07:36:48.071Z,-3.18
2023-01-21T07:37:47.794Z,-3.21
2023-01-21T07:38:48.118Z,-3.21
2023-01-21T07:39:48.270Z,-3.21
2023-01-21T07:40:48.241Z,-3.18
2023-01-21T07:41:48.208Z,-3.15
2023-01-21T07:42:47.709Z,-3.22
2023-01-21T07:43:47.946Z,-3.06
2023-01-21T07:44:48.150Z,-3.15
2023-01-21T07:45:48.161Z,-3.17
2023-01-21T07:46:48.277Z,-3.11
2023-01-21T07:47:48.086Z,-3.25
2023-01-21T07:48:48.067Z,-3.19
2023-01-21T07:49:48.122Z,-3.24
2023-01-21T07:50:47.829Z,-3.28
2023-01-21T07:51:47.777Z,-3.29
2023-01-21T07:52:48.007Z,-3.36
2023-01-21T07:53:47.701Z,-3.38
2023-01-21T07:54:47.672Z,-3.38
2023-01-21T07:55:47.900Z,-3.42
2023-01-21T07:56:47.939Z,-3.42
2023-01-21T07:57:47.599Z,-3.4
2023-01-21T07:58:47.583Z,-3.42
2023-01-21T07:59:47.589Z,-3.48
2023-01-21T08:00:47.288Z,-3.47
2023-01-21T08:01:48.210Z,-3.48
2023-01-21T08:02:47.450Z,-3.43
2023-01-21T08:03:47.747Z,-3.47
2023-01-21T08:04:47.205Z,-3.53
2023-01-21T08:05:47.779Z,-3.38
2023-01-21T08:06:47.705Z,-3.4
2023-01-21T08:07:47.680Z,-3.38
2023-01-21T08:08:48.146Z,-3.4
2023-01-21T08:09:48.143Z,-3.39
2023-01-21T08:10:48.352Z,-3.39
2023-01-21T08:11:48.085Z,-3.4
2023-01-21T08:12:48.304Z,-3.38
2023-01-21T08:13:48.290Z,-3.36
2023-01-21T08:14:48.267Z,-3.36
2023-01-21T08:15:48.249Z,-3.35
2023-01-21T08:16:47.979Z,-3.3
2023-01-21T08:17:48.221Z,-3.33
2023-01-21T08:18:47.950Z,-3.18
2023-01-21T08:19:48.151Z,-3.28
2023-01-21T08:20:48.156Z,-3.28
2023-01-21T08:21:48.187Z,-3.22
2023-01-21T08:22:48.093Z,-3.19
2023-01-21T08:23:48.070Z,-3.17
2023-01-21T08:24:47.810Z,-3.12
2023-01-21T08:25:48.038Z,-3.15
2023-01-21T08:26:47.745Z,-3.15
2023-01-21T08:27:47.987Z,-3.09
2023-01-21T08:28:47.950Z,-3.15
2023-01-21T08:29:47.678Z,-3.18
2023-01-21T08:30:47.741Z,-3.17
2023-01-21T08:31:47.792Z,-3.14
2023-01-21T08:32:47.865Z,-3.22
2023-01-21T08:33:47.592Z,-3.19
2023-01-21T08:34:47.878Z,-3.21
2023-01-21T08:35:47.544Z,-3.3
2023-01-21T08:36:47.973Z,-3.28
2023-01-21T08:37:47.866Z,-3.32
2023-01-21T08:38:50.933Z,-3.21
2023-01-21T08:39:47.735Z,-3.18
2023-01-21T08:40:47.178Z,-3.14
2023-01-21T08:41:47.692Z,-3.28
2023-01-21T08:42:47.399Z,-3.25
2023-01-21T08:43:47.394Z,-3.21
2023-01-21T08:44:47.356Z,-3.25
2023-01-21T08:45:47.790Z,-3.19
2023-01-21T08:46:47.557Z,-3.12
2023-01-21T08:47:47.033Z,-3.15
2023-01-21T08:48:47.265Z,-3.15
2023-01-21T08:49:47.652Z,-3.07
2023-01-21T08:50:47.596Z,-3.04
2023-01-21T08:51:47.192Z,-3.03
2023-01-21T08:52:47.167Z,-3.09
2023-01-21T08:53:47.498Z,-3.01
2023-01-21T08:54:49.074Z,-3.04
2023-01-21T08:55:47.355Z,-2.96
2023-01-21T08:56:47.111Z,-2.94
2023-01-21T08:57:47.317Z,-3.03
2023-01-21T08:58:47.307Z,-3.01
2023-01-21T08:59:47.267Z,-2.97
2023-01-21T09:00:47.436Z,-2.94
2023-01-21T09:01:47.058Z,-2.88
2023-01-21T09:02:46.948Z,-2.99
2023-01-21T09:03:47.176Z,-2.97
2023-01-21T09:04:46.900Z,-3.03
2023-01-21T09:05:46.884Z,-2.93
2023-01-21T09:06:46.874Z,-2.97
2023-01-21T09:07:46.588Z,-3.06
2023-01-21T09:08:46.808Z,-2.96
2023-01-21T09:09:47.129Z,-2.93
2023-01-21T09:10:46.789Z,-3.01
2023-01-21T09:11:47.026Z,-2.96
2023-01-21T09:12:46.732Z,-2.88
2023-01-21T09:13:46.964Z,-2.93
2023-01-21T09:14:46.693Z,-2.88
2023-01-21T09:15:46.445Z,-2.86
2023-01-21T09:16:47.067Z,-2.82
2023-01-21T09:17:46.624Z,-2.88
2023-01-21T09:18:46.351Z,-2.85
2023-01-21T09:19:46.838Z,-2.86
2023-01-21T09:20:46.813Z,-2.83
2023-01-21T09:21:46.797Z,-2.85
2023-01-21T09:22:46.515Z,-2.86
2023-01-21T09:23:46.492Z,-2.94
2023-01-21T09:24:46.485Z,-2.97
2023-01-21T09:25:46.795Z,-2.99
2023-01-21T09:26:46.682Z,-2.93
2023-01-21T09:27:46.654Z,-2.91
2023-01-21T09:28:46.629Z,-2.86
2023-01-21T09:29:46.361Z,-2.85
2023-01-21T09:30:46.692Z,-2.86
2023-01-21T09:31:46.687Z,-2.86
2023-01-21T09:32:46.286Z,-2.81
2023-01-21T09:33:46.268Z,-2.79
2023-01-21T09:34:46.264Z,-2.78
2023-01-21T09:35:46.225Z,-2.78
2023-01-21T09:36:46.463Z,-2.72
2023-01-21T09:37:46.440Z,-2.68
2023-01-21T09:38:46.185Z,-2.62
2023-01-21T09:39:48.374Z,-2.6
2023-01-21T09:40:46.424Z,-2.67
2023-01-21T09:41:46.436Z,-2.78
2023-01-21T09:42:46.069Z,-2.76
2023-01-21T09:43:46.054Z,-2.79
2023-01-21T09:44:46.293Z,-2.64
2023-01-21T09:45:46.353Z,-2.72
2023-01-21T09:46:46.238Z,-2.68
2023-01-21T09:47:45.961Z,-2.61
2023-01-21T09:48:46.213Z,-2.62
2023-01-21T09:49:46.276Z,-2.62
2023-01-21T09:50:46.169Z,-2.62
2023-01-21T09:51:46.138Z,-2.68
2023-01-21T09:52:46.119Z,-2.6
2023-01-21T09:53:45.839Z,-2.65
2023-01-21T09:54:45.855Z,-2.61
2023-01-21T09:55:45.788Z,-2.68
2023-01-21T09:56:46.035Z,-2.68
2023-01-21T09:57:46.090Z,-2.67
2023-01-21T09:58:45.967Z,-2.73
2023-01-21T09:59:45.721Z,-2.7
2023-01-21T10:00:45.715Z,-2.62
2023-01-21T10:01:45.914Z,-2.58
2023-01-21T10:02:45.897Z,-2.67
2023-01-21T10:03:45.621Z,-2.65
2023-01-21T10:04:46.072Z,-2.58
2023-01-21T10:05:45.848Z,-2.68
2023-01-21T10:06:45.543Z,-2.64
2023-01-21T10:07:45.528Z,-2.57
2023-01-21T10:08:45.767Z,-2.64
2023-01-21T10:09:45.494Z,-2.5
2023-01-21T10:10:45.726Z,-2.53
2023-01-21T10:11:48.306Z,-2.57
2023-01-21T10:12:45.451Z,-2.62
2023-01-21T10:13:45.738Z,-2.64
2023-01-21T10:14:45.391Z,-2.61
2023-01-21T10:15:45.618Z,-2.6
2023-01-21T10:16:45.843Z,-2.58
2023-01-21T10:17:45.558Z,-2.58
2023-01-21T10:18:45.544Z,-2.64
2023-01-21T10:19:45.275Z,-2.62
2023-01-21T10:20:45.501Z,-2.58
2023-01-21T10:21:45.218Z,-2.6
2023-01-21T10:22:45.212Z,-2.57
2023-01-21T10:23:47.720Z,-2.47
2023-01-21T10:24:45.410Z,-2.49
2023-01-21T10:25:45.127Z,-2.5
2023-01-21T10:26:45.392Z,-2.44
2023-01-21T10:27:45.088Z,-2.6
2023-01-21T10:28:45.069Z,-2.65
2023-01-21T10:29:45.443Z,-2.6
2023-01-21T10:30:45.326Z,-2.55
2023-01-21T10:31:45.685Z,-2.6
2023-01-21T10:32:44.976Z,-2.46
2023-01-21T10:33:45.240Z,-2.6
2023-01-21T10:34:44.679Z,-2.61
2023-01-21T10:35:44.923Z,-2.55
2023-01-21T10:36:45.179Z,-2.6
2023-01-21T10:37:44.612Z,-2.55
2023-01-21T10:38:45.224Z,-2.58
2023-01-21T10:39:44.821Z,-2.6
2023-01-21T10:40:44.918Z,-2.5
2023-01-21T10:41:45.032Z,-2.55
2023-01-21T10:42:45.029Z,-2.42
2023-01-21T10:43:45.001Z,-2.46
2023-01-21T10:44:44.755Z,-2.46
2023-01-21T10:45:45.246Z,-2.49
2023-01-21T10:46:44.684Z,-2.5
2023-01-21T10:47:44.921Z,-2.49
2023-01-21T10:48:44.638Z,-2.47
2023-01-21T10:49:44.874Z,-2.57
2023-01-21T10:50:44.399Z,-2.55
2023-01-21T10:51:44.310Z,-2.49
2023-01-21T10:52:44.617Z,-2.5
2023-01-21T10:53:44.289Z,-2.46
2023-01-21T10:54:44.765Z,-2.49
2023-01-21T10:55:44.481Z,-2.37
2023-01-21T10:56:44.471Z,-2.36
2023-01-21T10:57:44.432Z,-2.36
2023-01-21T10:58:44.422Z,-2.39
2023-01-21T10:59:44.396Z,-2.39
2023-01-21T11:00:44.652Z,-2.3
2023-01-21T11:01:44.825Z,-2.23
2023-01-21T11:02:44.655Z,-2.24
2023-01-21T11:03:44.059Z,-2.15
2023-01-21T11:04:44.572Z,-2.24
2023-01-21T11:05:44.262Z,-2.1
2023-01-21T11:06:43.981Z,-2.12
2023-01-21T11:07:44.469Z,-2.2
2023-01-21T11:08:44.321Z,-2.32
2023-01-21T11:09:44.426Z,-2.18
2023-01-21T11:10:44.153Z,-2.15
2023-01-21T11:11:43.884Z,-2.17
2023-01-21T11:12:44.361Z,-2.15
2023-01-21T11:13:44.340Z,-2.1
2023-01-21T11:14:44.508Z,-2.12
2023-01-21T11:15:43.888Z,-2.03
2023-01-21T11:16:43.785Z,-1.97
2023-01-21T11:17:44.348Z,-2.06
2023-01-21T11:18:43.984Z,-2.09
2023-01-21T11:19:44.217Z,-2.05
2023-01-21T11:20:44.198Z,-2.02
2023-01-21T11:21:44.191Z,-2
2023-01-21T11:22:44.176Z,-2.05
2023-01-21T11:23:44.207Z,-2.06
2023-01-21T11:24:43.865Z,-2.14
2023-01-21T11:25:44.158Z,-2.09
2023-01-21T11:26:43.808Z,-2.06
2023-01-21T11:27:44.063Z,-2.07
2023-01-21T11:28:44.024Z,-2.02
2023-01-21T11:29:43.997Z,-2.12
2023-01-21T11:31:00.361Z,-2.17
2023-01-21T11:31:44.241Z,-2.21
2023-01-21T11:32:43.928Z,-2.17
2023-01-21T11:33:44.109Z,-2.2
2023-01-21T11:34:43.885Z,-2.06
2023-01-21T11:35:43.931Z,-2.15
2023-01-21T11:36:43.338Z,-2.15
2023-01-21T11:37:43.581Z,-2.18
2023-01-21T11:38:43.547Z,-2.17
2023-01-21T11:39:43.813Z,-2.2
2023-01-21T11:40:43.771Z,-2.21
2023-01-21T11:41:43.508Z,-2.23
2023-01-21T11:42:43.492Z,-2.21
2023-01-21T11:43:43.434Z,-2.24
2023-01-21T11:44:43.427Z,-2.21
2023-01-21T11:45:43.679Z,-2.23
2023-01-21T11:46:43.647Z,-2.21
2023-01-21T11:47:43.626Z,-2.24
2023-01-21T11:48:43.597Z,-2.28
2023-01-21T11:49:43.696Z,-2.15
2023-01-21T11:50:43.556Z,-2.18
2023-01-21T11:51:43.542Z,-2.15
2023-01-21T11:52:43.502Z,-2.15
2023-01-21T11:53:43.254Z,-2.12
2023-01-21T11:54:42.962Z,-2.06
2023-01-21T11:55:43.191Z,-2.07
2023-01-21T11:56:43.167Z,-2.07
2023-01-21T11:57:43.508Z,-2.05
2023-01-21T11:58:43.133Z,-2.03
2023-01-21T11:59:43.118Z,-2.05
2023-01-21T12:00:43.331Z,-2.02
2023-01-21T12:01:43.321Z,-1.99
2023-01-21T12:02:43.248Z,-1.96
2023-01-21T12:03:43.966Z,-1.94
2023-01-21T12:04:44.008Z,-2.06
2023-01-21T12:05:44.060Z,-2.09
2023-01-21T12:06:43.705Z,-2.05
2023-01-21T12:07:43.700Z,-1.92
2023-01-21T12:08:43.657Z,-2.06
2023-01-21T12:09:43.634Z,-2.07
2023-01-21T12:10:43.883Z,-1.99
2023-01-21T12:11:43.633Z,-2.14
2023-01-21T12:12:43.582Z,-1.96
2023-01-21T12:13:43.570Z,-1.91
2023-01-21T12:14:43.566Z,-1.89
2023-01-21T12:15:43.722Z,-1.97
2023-01-21T12:16:43.782Z,-1.96
2023-01-21T12:17:45.025Z,-1.99
2023-01-21T12:18:43.702Z,-1.88
2023-01-21T12:19:43.677Z,-1.92
2023-01-21T12:20:43.412Z,-1.97
2023-01-21T12:21:43.738Z,-1.88
2023-01-21T12:22:43.366Z,-1.94
2023-01-21T12:23:43.343Z,-1.97
2023-01-21T12:24:43.570Z,-1.97
2023-01-21T12:25:44.226Z,-2.07
2023-01-21T12:26:44.053Z,-2
2023-01-21T12:27:44.193Z,-2.03
2023-01-21T12:28:44.400Z,-2.17
2023-01-21T12:29:43.890Z,-2.25
2023-01-21T12:30:44.099Z,-2.23
2023-01-21T12:31:44.329Z,-2.18
2023-01-21T12:32:44.116Z,-2.18
2023-01-21T12:33:44.073Z,-2.25
2023-01-21T12:34:43.836Z,-2.24
2023-01-21T12:35:43.789Z,-2.28
2023-01-21T12:36:44.013Z,-2.24
2023-01-21T12:37:44.079Z,-2.39
2023-01-21T12:38:43.449Z,-2.39
2023-01-21T12:39:43.702Z,-2.37
2023-01-21T12:40:43.940Z,-2.46
2023-01-21T12:41:43.640Z,-2.2
2023-01-21T12:42:43.390Z,-2.4
2023-01-21T12:43:45.695Z,-2.4
2023-01-21T12:44:43.579Z,-2.23
2023-01-21T12:45:43.843Z,-2.24
2023-01-21T12:46:43.964Z,-2.21
2023-01-21T12:47:44.565Z,-2.21
2023-01-21T12:48:44.553Z,-2.18
2023-01-21T12:49:44.256Z,-2.15
2023-01-21T12:50:44.649Z,-2.1
2023-01-21T12:51:44.253Z,-2.03
2023-01-21T12:52:44.208Z,-2.03
2023-01-21T12:53:44.523Z,-2.05
2023-01-21T12:54:44.410Z,-2.02
2023-01-21T12:55:44.496Z,-2
2023-01-21T12:56:44.117Z,-1.97
2023-01-21T12:57:44.354Z,-1.99
2023-01-21T12:58:44.182Z,-2.03
2023-01-21T12:59:44.047Z,-1.97
2023-01-21T13:00:44.140Z,-1.91
2023-01-21T13:01:44.480Z,-1.88
2023-01-21T13:02:43.735Z,-1.89
2023-01-21T13:03:43.729Z,-1.91
2023-01-21T13:04:43.954Z,-1.85
2023-01-21T13:05:44.246Z,-1.79
2023-01-21T13:06:57.928Z,-1.81
2023-01-21T13:07:43.890Z,-1.78
2023-01-21T13:08:43.883Z,-1.81
2023-01-21T13:09:44.168Z,-1.76
2023-01-21T13:10:43.819Z,-1.79
2023-01-21T13:11:43.788Z,-1.84
2023-01-21T13:12:43.811Z,-1.73
2023-01-21T13:13:43.999Z,-1.79